Private Wetterstation Wechselburg
Wetterdaten: Woche 22.05.23 - 28.05.23 (KW21)
Datum Zeit Temp. +2m Bodentemp. Temp.+5cm Temp. Wind Windchill X Diff Temp. Feuchte +2m Feuchte +5cm Luftdruck Regen Wind Richtung Sonnenschein Taupunkt Windchill Windben
22.05.2023 00:00 16,3 C 18,7 C 14,7 C 16,2 C 15,8 C 0,1 C 75 % 70 % 1015,8 hPa 0,0 l/m 0,0 km/h (0 Bft) N 0,00 h 11,8 C 15,8 C 0,0 km/h (0 Bft)
22.05.2023 01:00 13,6 C 18,5 C 12,6 C 13,4 C 13,0 C 0,1 C 82 % 75 % 1015,3 hPa 0,0 l/m 0,0 km/h (0 Bft) N 0,00 h 10,6 C 13,0 C 0,0 km/h (0 Bft)
22.05.2023 02:00 12,8 C 18,4 C 11,9 C 12,5 C 11,9 C 0,0 C 84 % 76 % 1015,0 hPa 0,0 l/m 0,0 km/h (0 Bft) N 0,00 h 10,2 C 11,9 C 0,0 km/h (0 Bft)
22.05.2023 03:00 12,3 C 18,3 C 11,5 C 12,1 C 11,6 C 0,0 C 85 % 77 % 1015,1 hPa 0,0 l/m 0,0 km/h (0 Bft) N 0,00 h 9,9 C 11,6 C 0,0 km/h (0 Bft)
22.05.2023 04:00 12,0 C 18,1 C 11,3 C 11,8 C 11,4 C 0,0 C 86 % 77 % 1014,6 hPa 0,0 l/m 0,0 km/h (0 Bft) N 0,00 h 9,8 C 11,4 C 0,0 km/h (0 Bft)
22.05.2023 05:00 12,1 C 17,9 C 12,1 C 12,7 C 12,7 C 0,6 C 87 % 79 % 1014,6 hPa 0,0 l/m 0,0 km/h (0 Bft) N 0,58 h 10,1 C 12,7 C 0,0 km/h (0 Bft)
22.05.2023 06:00 14,6 C 17,6 C 15,2 C 19,7 C 19,7 C 5,2 C 88 % 76 % 1014,7 hPa 0,0 l/m 0,0 km/h (0 Bft) N 1,00 h 12,5 C 19,7 C 0,0 km/h (0 Bft)
22.05.2023 07:00 18,4 C 17,5 C 17,7 C 22,8 C 22,8 C 4,4 C 81 % 72 % 1014,8 hPa 0,0 l/m 0,3 km/h (0 Bft) O-NO 1,00 h 15,0 C 22,8 C 0,7 km/h (0 Bft)
22.05.2023 08:00 20,8 C 17,5 C 19,6 C 25,6 C 25,6 C 4,8 C 73 % 68 % 1014,7 hPa 0,0 l/m 1,3 km/h (1 Bft) O-NO 0,33 h 15,8 C 25,6 C 2,0 km/h (1 Bft)
22.05.2023 09:00 21,2 C 17,5 C 20,4 C 24,2 C 24,2 C 3,0 C 71 % 65 % 1014,7 hPa 0,0 l/m 1,4 km/h (1 Bft) O-NO 1,15 h 15,6 C 24,2 C 3,4 km/h (1 Bft)
22.05.2023 10:00 22,1 C 17,6 C 21,8 C 23,8 C 23,8 C 1,7 C 68 % 62 % 1014,4 hPa 0,0 l/m 0,0 km/h (0 Bft) N 0,00 h 16,0 C 23,8 C 0,0 km/h (0 Bft)
22.05.2023 11:00 23,0 C 17,7 C 22,8 C 23,8 C 23,8 C 0,8 C 64 % 57 % 1014,2 hPa 0,0 l/m 0,0 km/h (0 Bft) N 0,00 h 15,8 C 23,8 C 0,0 km/h (0 Bft)
22.05.2023 12:00 23,7 C 17,9 C 23,4 C 26,2 C 26,2 C 2,5 C 58 % 51 % 1014,0 hPa 0,0 l/m 3,6 km/h (1 Bft) O-NO 0,33 h 15,0 C 26,2 C 5,6 km/h (1 Bft)
22.05.2023 13:00 24,4 C 18,0 C 24,1 C 27,0 C 27,0 C 2,6 C 55 % 49 % 1013,6 hPa 0,0 l/m 5,8 km/h (2 Bft) O-NO 0,50 h 14,8 C 27,0 C 7,3 km/h (2 Bft)
22.05.2023 14:00 25,2 C 18,3 C 26,0 C 28,9 C 28,9 C 3,7 C 52 % 46 % 1013,3 hPa 0,0 l/m 6,2 km/h (2 Bft) O-NO 0,83 h 14,6 C 28,9 C 8,1 km/h (2 Bft)
22.05.2023 15:00 25,9 C 18,5 C 26,4 C 30,0 C 30,0 C 4,1 C 50 % 44 % 1013,0 hPa 0,0 l/m 6,1 km/h (2 Bft) O-NO 1,00 h 14,6 C 30,0 C 9,3 km/h (2 Bft)
22.05.2023 16:00 26,0 C 18,7 C 26,3 C 29,9 C 29,9 C 3,9 C 49 % 43 % 1012,7 hPa 0,0 l/m 5,0 km/h (1 Bft) O-NO 0,92 h 14,3 C 29,9 C 5,5 km/h (1 Bft)
22.05.2023 17:00 25,4 C 18,8 C 25,3 C 26,8 C 26,8 C 1,4 C 51 % 45 % 1012,3 hPa 0,0 l/m 3,8 km/h (1 Bft) O-NO 0,00 h 14,5 C 26,8 C 4,4 km/h (1 Bft)
22.05.2023 18:00 24,6 C 18,9 C 24,2 C 25,4 C 25,4 C 0,9 C 55 % 49 % 1011,8 hPa 0,0 l/m 2,3 km/h (1 Bft) O-NO 0,00 h 14,9 C 25,4 C 3,1 km/h (1 Bft)
22.05.2023 19:00 23,4 C 19,0 C 23,0 C 23,9 C 23,9 C 0,4 C 52 % 45 % 1011,6 hPa 0,0 l/m 4,6 km/h (1 Bft) O-NO 0,00 h 12,9 C 23,9 C 5,8 km/h (2 Bft)
22.05.2023 20:00 21,7 C 19,1 C 20,5 C 21,5 C 21,1 C 0,0 C 53 % 46 % 1012,0 hPa 0,0 l/m 1,1 km/h (1 Bft) NO 0,00 h 11,8 C 21,1 C 1,4 km/h (1 Bft)
22.05.2023 21:00 20,1 C 19,0 C 19,0 C 19,8 C 19,3 C 0,0 C 58 % 51 % 1012,0 hPa 0,0 l/m 0,1 km/h (0 Bft) N 0,00 h 11,6 C 19,3 C 0,1 km/h (0 Bft)
22.05.2023 22:00 19,7 C 19,1 C 18,8 C 19,5 C 19,4 C 0,0 C 64 % 56 % 1012,7 hPa 0,0 l/m 0,1 km/h (0 Bft) N 0,00 h 12,6 C 19,4 C 0,0 km/h (0 Bft)
22.05.2023 23:00 18,6 C 19,0 C 17,7 C 18,4 C 17,9 C 0,0 C 70 % 64 % 1012,7 hPa 0,0 l/m 0,0 km/h (0 Bft) N 0,00 h 13,0 C 17,9 C 0,0 km/h (0 Bft)
23.05.2023 00:00 16,9 C 19,4 C 15,6 C 16,4 C 15,4 C 0,0 C 80 % 83 % 1012,2 hPa 2,1 l/m 0,2 km/h (0 Bft) N 0,00 h 13,3 C 15,4 C 0,2 km/h (0 Bft)
23.05.2023 01:00 15,7 C 19,3 C 14,8 C 15,3 C 14,6 C 0,0 C 84 % 88 % 1012,2 hPa 0,0 l/m 0,1 km/h (0 Bft) N 0,00 h 13,0 C 14,6 C 0,4 km/h (0 Bft)
23.05.2023 02:00 15,2 C 19,2 C 14,2 C 14,8 C 14,1 C 0,0 C 86 % 89 % 1011,9 hPa 0,0 l/m 0,0 km/h (0 Bft) N 0,00 h 12,8 C 14,1 C 0,0 km/h (0 Bft)
23.05.2023 03:00 14,9 C 19,2 C 14,4 C 14,7 C 14,3 C 0,0 C 87 % 90 % 1011,4 hPa 0,0 l/m 0,0 km/h (0 Bft) N 0,00 h 12,7 C 14,3 C 0,0 km/h (0 Bft)
23.05.2023 04:00 14,9 C 19,0 C 14,6 C 14,8 C 14,6 C 0,0 C 87 % 90 % 1011,1 hPa 0,0 l/m 0,1 km/h (0 Bft) N 0,00 h 12,7 C 14,6 C 0,0 km/h (0 Bft)
23.05.2023 05:00 14,8 C 18,9 C 14,6 C 14,8 C 14,8 C 0,0 C 88 % 90 % 1011,1 hPa 0,0 l/m 0,1 km/h (0 Bft) N 0,00 h 12,8 C 14,8 C 0,0 km/h (0 Bft)
23.05.2023 06:00 15,0 C 18,8 C 15,2 C 15,7 C 15,7 C 0,7 C 88 % 90 % 1011,6 hPa 0,0 l/m 0,0 km/h (0 Bft) N 0,00 h 13,1 C 15,7 C 0,0 km/h (0 Bft)
23.05.2023 07:00 15,7 C 18,7 C 15,8 C 17,6 C 17,6 C 1,9 C 88 % 89 % 1011,6 hPa 0,0 l/m 0,0 km/h (0 Bft) N 0,00 h 13,7 C 17,6 C 0,0 km/h (0 Bft)
23.05.2023 08:00 16,4 C 18,6 C 16,4 C 18,2 C 18,2 C 1,7 C 87 % 84 % 1012,2 hPa 0,0 l/m 0,0 km/h (0 Bft) N 0,00 h 14,3 C 18,2 C 1,4 km/h (1 Bft)
23.05.2023 09:00 16,4 C 18,6 C 16,1 C 17,0 C 17,0 C 0,7 C 86 % 83 % 1012,5 hPa 0,0 l/m 0,0 km/h (0 Bft) N 0,00 h 14,0 C 17,0 C 0,0 km/h (0 Bft)
23.05.2023 10:00 16,0 C 18,5 C 15,7 C 16,3 C 16,2 C 0,3 C 86 % 84 % 1012,8 hPa 0,0 l/m 0,3 km/h (0 Bft) N 0,00 h 13,7 C 16,2 C 2,0 km/h (1 Bft)
23.05.2023 11:00 15,6 C 18,4 C 15,8 C 17,0 C 17,0 C 1,4 C 87 % 83 % 1013,4 hPa 0,0 l/m 0,0 km/h (0 Bft) N 0,00 h 13,5 C 17,0 C 0,0 km/h (0 Bft)
23.05.2023 12:00 16,2 C 18,1 C 16,0 C 17,8 C 17,8 C 1,6 C 84 % 76 % 1013,5 hPa 0,0 l/m 0,1 km/h (0 Bft) N 0,00 h 13,4 C 17,8 C 0,0 km/h (0 Bft)
23.05.2023 13:00 16,1 C 18,0 C 16,1 C 17,4 C 17,4 C 1,3 C 80 % 73 % 1013,9 hPa 0,0 l/m 0,1 km/h (0 Bft) N 0,00 h 12,7 C 17,4 C 0,3 km/h (0 Bft)
23.05.2023 14:00 15,9 C 17,9 C 15,7 C 16,5 C 16,5 C 0,6 C 80 % 75 % 1014,1 hPa 0,0 l/m 0,2 km/h (0 Bft) N 0,00 h 12,5 C 16,5 C 0,6 km/h (0 Bft)
23.05.2023 15:00 14,9 C 18,2 C 14,5 C 15,1 C 15,0 C 0,2 C 84 % 81 % 1014,5 hPa 0,0 l/m 0,2 km/h (0 Bft) N 0,00 h 12,3 C 15,0 C 0,1 km/h (0 Bft)
23.05.2023 16:00 13,9 C 18,2 C 13,7 C 14,0 C 14,0 C 0,2 C 87 % 84 % 1015,1 hPa 0,0 l/m 0,5 km/h (0 Bft) N 0,00 h 11,7 C 14,0 C 0,9 km/h (0 Bft)
23.05.2023 17:00 13,5 C 17,9 C 13,3 C 14,0 C 14,0 C 0,5 C 87 % 81 % 1015,6 hPa 0,0 l/m 0,6 km/h (0 Bft) N 0,00 h 11,3 C 14,0 C 1,3 km/h (1 Bft)
23.05.2023 18:00 12,6 C 17,9 C 12,3 C 12,6 C 12,4 C 0,1 C 87 % 82 % 1015,8 hPa 0,0 l/m 0,8 km/h (0 Bft) N-NO 0,00 h 10,5 C 12,4 C 1,5 km/h (1 Bft)
23.05.2023 19:00 11,5 C 17,7 C 11,3 C 11,4 C 11,2 C 0,0 C 87 % 82 % 1016,5 hPa 0,0 l/m 1,6 km/h (1 Bft) S-SW 0,00 h 9,5 C 11,2 C 3,4 km/h (1 Bft)
23.05.2023 20:00 10,9 C 17,7 C 10,8 C 10,7 C 10,5 C 0,0 C 88 % 87 % 1017,4 hPa 0,0 l/m 0,4 km/h (0 Bft) N 0,00 h 9,0 C 10,5 C 0,5 km/h (0 Bft)
23.05.2023 21:00 10,4 C 17,6 C 10,6 C 10,4 C 10,3 C 0,0 C 88 % 90 % 1018,0 hPa 0,0 l/m 0,1 km/h (0 Bft) N 0,00 h 8,6 C 10,3 C 0,2 km/h (0 Bft)
23.05.2023 22:00 10,3 C 17,2 C 10,6 C 10,3 C 10,2 C 0,0 C 88 % 85 % 1018,5 hPa 0,0 l/m 0,4 km/h (0 Bft) N 0,00 h 8,4 C 10,2 C 0,6 km/h (0 Bft)
23.05.2023 23:00 10,3 C 16,8 C 10,3 C 10,3 C 10,2 C 0,0 C 87 % 75 % 1018,9 hPa 0,0 l/m 0,1 km/h (0 Bft) N 0,00 h 8,3 C 10,2 C 0,1 km/h (0 Bft)
24.05.2023 00:00 9,9 C 16,7 C 9,5 C 9,7 C 9,4 C 0,0 C 85 % 73 % 1019,3 hPa 0,0 l/m 0,0 km/h (0 Bft) N 0,00 h 7,5 C 9,4 C 0,0 km/h (0 Bft)
24.05.2023 01:00 9,5 C 16,6 C 9,1 C 9,3 C 8,9 C 0,0 C 84 % 74 % 1019,3 hPa 0,0 l/m 0,0 km/h (0 Bft) N 0,00 h 6,9 C 8,9 C 0,0 km/h (0 Bft)
24.05.2023 02:00 9,1 C 16,4 C 9,0 C 9,0 C 8,8 C 0,0 C 83 % 70 % 1019,5 hPa 0,0 l/m 0,0 km/h (0 Bft) N 0,00 h 6,5 C 8,8 C 1,1 km/h (0 Bft)
24.05.2023 03:00 8,7 C 16,3 C 8,4 C 8,5 C 8,2 C 0,0 C 82 % 69 % 1020,0 hPa 0,0 l/m 0,0 km/h (0 Bft) N 0,00 h 5,8 C 8,2 C 0,0 km/h (0 Bft)
24.05.2023 04:00 8,1 C 16,1 C 7,8 C 7,9 C 7,5 C 0,0 C 83 % 70 % 1020,1 hPa 0,0 l/m 0,0 km/h (0 Bft) N 0,00 h 5,3 C 7,5 C 0,0 km/h (0 Bft)
24.05.2023 05:00 7,5 C 15,9 C 7,3 C 7,3 C 7,0 C 0,0 C 83 % 70 % 1020,1 hPa 0,0 l/m 0,0 km/h (0 Bft) N 0,00 h 4,8 C 7,0 C 0,0 km/h (0 Bft)
24.05.2023 06:00 7,4 C 15,8 C 7,6 C 7,7 C 7,7 C 0,3 C 84 % 69 % 1020,7 hPa 0,0 l/m 0,0 km/h (0 Bft) N 0,00 h 4,8 C 7,7 C 0,0 km/h (0 Bft)
24.05.2023 07:00 7,9 C 15,6 C 8,2 C 8,9 C 8,9 C 1,0 C 83 % 67 % 1021,1 hPa 0,0 l/m 0,0 km/h (0 Bft) N 0,00 h 5,1 C 8,9 C 0,0 km/h (0 Bft)
24.05.2023 08:00 8,3 C 15,4 C 8,6 C 10,0 C 10,0 C 1,7 C 80 % 63 % 1021,6 hPa 0,0 l/m 0,0 km/h (0 Bft) N 0,00 h 5,1 C 10,0 C 0,0 km/h (0 Bft)
24.05.2023 09:00 9,1 C 15,2 C 9,7 C 12,6 C 12,6 C 3,5 C 75 % 55 % 1022,1 hPa 0,0 l/m 0,0 km/h (0 Bft) N 0,67 h 4,9 C 12,6 C 0,2 km/h (0 Bft)
24.05.2023 10:00 9,9 C 15,1 C 10,3 C 13,9 C 13,9 C 3,9 C 71 % 51 % 1022,4 hPa 0,0 l/m 0,0 km/h (0 Bft) N 0,75 h 4,9 C 13,9 C 0,0 km/h (0 Bft)
24.05.2023 11:00 10,8 C 15,1 C 11,5 C 15,6 C 15,6 C 4,8 C 68 % 49 % 1022,4 hPa 0,0 l/m 0,1 km/h (0 Bft) N 1,00 h 5,2 C 15,6 C 1,1 km/h (1 Bft)
24.05.2023 12:00 11,7 C 15,0 C 12,2 C 16,4 C 16,4 C 4,7 C 66 % 48 % 1022,7 hPa 0,0 l/m 0,1 km/h (0 Bft) N 1,00 h 5,5 C 16,4 C 0,0 km/h (0 Bft)
24.05.2023 13:00 13,4 C 14,9 C 13,6 C 19,3 C 19,3 C 6,0 C 62 % 45 % 1022,8 hPa 0,0 l/m 0,1 km/h (0 Bft) N 1,00 h 6,2 C 19,3 C 0,6 km/h (0 Bft)
24.05.2023 14:00 14,5 C 15,0 C 14,8 C 20,7 C 20,7 C 6,2 C 58 % 43 % 1022,6 hPa 0,0 l/m 0,2 km/h (0 Bft) N 1,00 h 6,5 C 20,7 C 1,0 km/h (0 Bft)
24.05.2023 15:00 14,8 C 15,1 C 15,3 C 21,2 C 21,2 C 6,5 C 58 % 43 % 1022,6 hPa 0,0 l/m 0,2 km/h (0 Bft) N 1,00 h 6,6 C 21,2 C 0,6 km/h (0 Bft)
24.05.2023 16:00 14,7 C 15,1 C 14,9 C 19,7 C 19,7 C 5,0 C 57 % 41 % 1022,5 hPa 0,0 l/m 0,1 km/h (0 Bft) N 0,75 h 6,2 C 19,7 C 0,7 km/h (0 Bft)
24.05.2023 17:00 15,0 C 15,2 C 15,3 C 17,7 C 17,7 C 2,7 C 56 % 42 % 1022,6 hPa 0,0 l/m 0,1 km/h (0 Bft) N 0,33 h 6,3 C 17,7 C 0,0 km/h (0 Bft)
24.05.2023 18:00 15,1 C 15,3 C 14,9 C 17,1 C 17,1 C 2,1 C 57 % 42 % 1022,7 hPa 0,0 l/m 0,1 km/h (0 Bft) N 0,00 h 6,5 C 17,1 C 0,0 km/h (0 Bft)
24.05.2023 19:00 14,8 C 15,4 C 14,5 C 17,4 C 17,4 C 2,5 C 57 % 42 % 1022,9 hPa 0,0 l/m 0,0 km/h (0 Bft) N 0,67 h 6,4 C 17,4 C 0,0 km/h (0 Bft)
24.05.2023 20:00 13,8 C 15,4 C 12,5 C 14,7 C 14,6 C 1,0 C 59 % 47 % 1023,2 hPa 0,0 l/m 0,0 km/h (0 Bft) N 0,42 h 6,0 C 14,6 C 0,0 km/h (0 Bft)
24.05.2023 21:00 11,4 C 15,5 C 9,6 C 10,8 C 9,4 C 0,0 C 66 % 58 % 1023,5 hPa 0,0 l/m 0,0 km/h (0 Bft) N 0,00 h 5,3 C 9,4 C 0,0 km/h (0 Bft)
24.05.2023 22:00 9,3 C 15,7 C 7,8 C 8,5 C 6,9 C 0,0 C 74 % 67 % 1024,0 hPa 0,0 l/m 0,0 km/h (0 Bft) N 0,00 h 4,8 C 6,9 C 0,0 km/h (0 Bft)
24.05.2023 23:00 7,7 C 15,8 C 6,5 C 7,1 C 5,9 C 0,0 C 79 % 71 % 1024,6 hPa 0,0 l/m 0,0 km/h (0 Bft) N 0,00 h 4,3 C 5,9 C 0,0 km/h (0 Bft)
25.05.2023 00:00 6,5 C 15,7 C 5,5 C 5,9 C 4,8 C 0,0 C 82 % 73 % 1024,6 hPa 0,0 l/m 0,0 km/h (0 Bft) N 0,00 h 3,6 C 4,8 C 0,0 km/h (0 Bft)
25.05.2023 01:00 5,5 C 15,6 C 4,8 C 5,0 C 4,0 C 0,0 C 84 % 74 % 1024,7 hPa 0,0 l/m 0,0 km/h (0 Bft) N 0,00 h 3,0 C 4,0 C 0,0 km/h (0 Bft)
25.05.2023 02:00 4,8 C 15,5 C 4,2 C 4,4 C 3,5 C 0,0 C 85 % 74 % 1025,1 hPa 0,0 l/m 0,0 km/h (0 Bft) N 0,00 h 2,5 C 3,5 C 0,0 km/h (0 Bft)
25.05.2023 03:00 4,3 C 15,3 C 3,7 C 3,8 C 2,9 C 0,0 C 86 % 74 % 1025,2 hPa 0,0 l/m 0,0 km/h (0 Bft) N 0,00 h 2,2 C 2,9 C 0,0 km/h (0 Bft)
25.05.2023 04:00 3,8 C 15,1 C 3,0 C 3,3 C 2,2 C 0,0 C 87 % 74 % 1025,3 hPa 0,0 l/m 0,0 km/h (0 Bft) N 0,00 h 1,7 C 2,2 C 0,0 km/h (0 Bft)
25.05.2023 05:00 3,4 C 15,0 C 2,8 C 2,9 C 2,0 C 0,0 C 87 % 75 % 1025,7 hPa 0,0 l/m 0,0 km/h (0 Bft) N 0,00 h 1,4 C 2,0 C 0,0 km/h (0 Bft)
25.05.2023 06:00 3,7 C 14,8 C 3,7 C 3,8 C 3,6 C 0,2 C 88 % 77 % 1026,0 hPa 0,0 l/m 0,0 km/h (0 Bft) N 0,00 h 1,9 C 3,6 C 0,0 km/h (0 Bft)
25.05.2023 07:00 5,8 C 14,6 C 6,4 C 15,5 C 15,5 C 9,8 C 89 % 80 % 1026,2 hPa 0,0 l/m 0,0 km/h (0 Bft) N 0,83 h 4,0 C 15,5 C 0,0 km/h (0 Bft)
25.05.2023 08:00 10,1 C 14,3 C 8,6 C 23,4 C 23,4 C 13,3 C 87 % 79 % 1026,3 hPa 0,0 l/m 0,0 km/h (0 Bft) N 1,00 h 8,0 C 23,4 C 0,0 km/h (0 Bft)
25.05.2023 09:00 13,7 C 14,4 C 11,5 C 22,0 C 22,0 C 8,3 C 78 % 74 % 1026,2 hPa 0,0 l/m 0,0 km/h (0 Bft) N 1,00 h 9,9 C 22,0 C 0,0 km/h (0 Bft)
25.05.2023 10:00 14,1 C 14,4 C 13,9 C 19,0 C 19,0 C 4,9 C 73 % 65 % 1026,4 hPa 0,0 l/m 0,0 km/h (0 Bft) N 1,00 h 9,5 C 19,0 C 0,0 km/h (0 Bft)
25.05.2023 11:00 14,9 C 14,5 C 14,8 C 19,6 C 19,6 C 4,7 C 69 % 57 % 1026,5 hPa 0,0 l/m 0,1 km/h (0 Bft) N 1,00 h 9,3 C 19,6 C 0,5 km/h (0 Bft)
25.05.2023 12:00 16,3 C 14,6 C 15,7 C 21,8 C 21,8 C 5,5 C 64 % 53 % 1026,3 hPa 0,0 l/m 0,1 km/h (0 Bft) N 0,90 h 9,4 C 21,8 C 0,8 km/h (0 Bft)
25.05.2023 13:00 17,8 C 14,7 C 16,7 C 23,6 C 23,6 C 5,7 C 59 % 50 % 1026,3 hPa 0,0 l/m 0,2 km/h (0 Bft) N 1,00 h 9,7 C 23,6 C 0,8 km/h (0 Bft)
25.05.2023 14:00 18,7 C 15,0 C 18,5 C 24,8 C 24,8 C 6,1 C 55 % 46 % 1025,9 hPa 0,0 l/m 0,1 km/h (0 Bft) N 1,00 h 9,6 C 24,8 C 0,0 km/h (0 Bft)
25.05.2023 15:00 18,9 C 15,2 C 19,7 C 26,6 C 26,6 C 7,6 C 55 % 45 % 1025,6 hPa 0,0 l/m 0,1 km/h (0 Bft) N 1,00 h 9,8 C 26,6 C 0,0 km/h (0 Bft)
25.05.2023 16:00 19,4 C 15,4 C 19,9 C 26,9 C 26,9 C 7,5 C 54 % 43 % 1025,2 hPa 0,0 l/m 0,2 km/h (0 Bft) N 1,00 h 9,8 C 26,9 C 1,2 km/h (1 Bft)
25.05.2023 17:00 19,5 C 15,5 C 20,0 C 22,5 C 22,5 C 3,0 C 52 % 42 % 1025,1 hPa 0,0 l/m 0,1 km/h (0 Bft) N 0,42 h 9,4 C 22,5 C 0,3 km/h (0 Bft)
25.05.2023 18:00 19,3 C 15,7 C 18,8 C 20,4 C 20,4 C 1,1 C 51 % 41 % 1024,4 hPa 0,0 l/m 0,1 km/h (0 Bft) N 0,00 h 8,9 C 20,4 C 0,0 km/h (0 Bft)
25.05.2023 19:00 19,0 C 15,8 C 18,0 C 20,3 C 20,3 C 1,2 C 52 % 43 % 1024,5 hPa 0,0 l/m 0,1 km/h (0 Bft) N 0,08 h 9,0 C 20,3 C 0,9 km/h (0 Bft)
25.05.2023 20:00 17,4 C 16,0 C 16,3 C 18,5 C 18,5 C 1,1 C 58 % 47 % 1024,5 hPa 0,0 l/m 0,0 km/h (0 Bft) N 0,75 h 8,9 C 18,5 C 0,0 km/h (0 Bft)
25.05.2023 21:00 15,3 C 16,1 C 13,8 C 14,9 C 13,9 C 0,0 C 63 % 53 % 1025,1 hPa 0,0 l/m 0,0 km/h (0 Bft) N 0,00 h 8,3 C 13,9 C 0,0 km/h (0 Bft)
25.05.2023 22:00 12,9 C 16,2 C 11,4 C 12,4 C 11,5 C 0,0 C 70 % 62 % 1025,7 hPa 0,0 l/m 0,0 km/h (0 Bft) N 0,00 h 7,7 C 11,5 C 0,0 km/h (0 Bft)
25.05.2023 23:00 11,4 C 16,3 C 10,3 C 11,1 C 10,4 C 0,0 C 76 % 66 % 1025,9 hPa 0,0 l/m 0,0 km/h (0 Bft) N 0,00 h 7,4 C 10,4 C 0,0 km/h (0 Bft)
26.05.2023 00:00 10,6 C 16,2 C 9,4 C 10,2 C 9,4 C 0,0 C 79 % 69 % 1026,3 hPa 0,0 l/m 0,0 km/h (0 Bft) N 0,00 h 7,0 C 9,4 C 0,0 km/h (0 Bft)
26.05.2023 01:00 9,2 C 16,3 C 8,1 C 8,6 C 7,5 C 0,0 C 80 % 72 % 1026,3 hPa 0,0 l/m 0,0 km/h (0 Bft) N 0,00 h 5,9 C 7,5 C 0,0 km/h (0 Bft)
26.05.2023 02:00 7,9 C 16,3 C 7,0 C 7,4 C 6,4 C 0,0 C 82 % 74 % 1026,4 hPa 0,0 l/m 0,0 km/h (0 Bft) N 0,00 h 5,0 C 6,4 C 0,0 km/h (0 Bft)
26.05.2023 03:00 7,0 C 16,1 C 6,2 C 6,5 C 5,6 C 0,0 C 83 % 75 % 1026,1 hPa 0,0 l/m 0,0 km/h (0 Bft) N 0,00 h 4,3 C 5,6 C 0,0 km/h (0 Bft)
26.05.2023 04:00 6,3 C 15,9 C 5,7 C 5,9 C 5,1 C 0,0 C 84 % 76 % 1026,4 hPa 0,0 l/m 0,0 km/h (0 Bft) N 0,00 h 3,8 C 5,1 C 0,0 km/h (0 Bft)
26.05.2023 05:00 6,1 C 15,8 C 5,7 C 5,8 C 5,3 C 0,0 C 85 % 76 % 1026,6 hPa 0,0 l/m 0,0 km/h (0 Bft) N 0,00 h 3,8 C 5,3 C 0,0 km/h (0 Bft)
26.05.2023 06:00 6,8 C 15,7 C 6,9 C 7,1 C 7,1 C 0,4 C 87 % 79 % 1026,9 hPa 0,0 l/m 0,0 km/h (0 Bft) N 0,00 h 4,8 C 7,1 C 0,0 km/h (0 Bft)
26.05.2023 07:00 8,9 C 15,4 C 9,4 C 16,9 C 16,9 C 8,0 C 88 % 79 % 1026,9 hPa 0,0 l/m 0,0 km/h (0 Bft) N 0,83 h 7,0 C 16,9 C 0,0 km/h (0 Bft)
26.05.2023 08:00 12,8 C 15,3 C 11,7 C 22,9 C 22,9 C 10,1 C 84 % 73 % 1027,3 hPa 0,0 l/m 0,0 km/h (0 Bft) N 1,00 h 10,2 C 22,9 C 0,0 km/h (0 Bft)
26.05.2023 09:00 14,8 C 15,2 C 13,2 C 21,6 C 21,6 C 6,9 C 76 % 67 % 1027,4 hPa 0,0 l/m 0,0 km/h (0 Bft) N 1,00 h 10,5 C 21,6 C 0,0 km/h (0 Bft)
26.05.2023 10:00 15,5 C 15,2 C 15,1 C 21,5 C 21,5 C 6,0 C 72 % 61 % 1027,6 hPa 0,0 l/m 0,1 km/h (0 Bft) N 0,83 h 10,5 C 21,5 C 1,1 km/h (1 Bft)
26.05.2023 11:00 17,0 C 15,2 C 16,5 C 22,9 C 22,9 C 5,9 C 63 % 50 % 1027,4 hPa 0,0 l/m 0,2 km/h (0 Bft) N 1,00 h 10,0 C 22,9 C 1,1 km/h (1 Bft)
26.05.2023 12:00 18,2 C 15,4 C 17,0 C 24,2 C 24,2 C 6,0 C 54 % 43 % 1027,5 hPa 0,0 l/m 0,3 km/h (0 Bft) N 1,00 h 8,7 C 24,2 C 2,9 km/h (1 Bft)
26.05.2023 13:00 19,6 C 15,5 C 17,7 C 25,1 C 25,1 C 5,5 C 50 % 41 % 1027,2 hPa 0,0 l/m 0,4 km/h (0 Bft) SO 1,00 h 8,8 C 25,1 C 1,6 km/h (1 Bft)
26.05.2023 14:00 20,3 C 15,6 C 19,9 C 25,8 C 25,8 C 5,4 C 47 % 40 % 1026,9 hPa 0,0 l/m 0,2 km/h (0 Bft) N 1,00 h 8,7 C 25,8 C 0,5 km/h (0 Bft)
26.05.2023 15:00 19,7 C 15,8 C 19,5 C 24,5 C 24,5 C 4,8 C 50 % 41 % 1026,9 hPa 0,0 l/m 0,3 km/h (0 Bft) N 0,92 h 8,9 C 24,5 C 1,3 km/h (1 Bft)
26.05.2023 16:00 20,1 C 16,0 C 20,2 C 25,8 C 25,8 C 5,7 C 49 % 40 % 1026,5 hPa 0,0 l/m 0,2 km/h (0 Bft) N 0,75 h 9,0 C 25,8 C 0,0 km/h (0 Bft)
26.05.2023 17:00 20,2 C 16,1 C 20,5 C 22,9 C 22,9 C 2,7 C 48 % 40 % 1026,4 hPa 0,0 l/m 0,2 km/h (0 Bft) N 0,25 h 9,0 C 22,9 C 1,0 km/h (0 Bft)
26.05.2023 18:00 20,4 C 16,3 C 19,7 C 21,5 C 21,5 C 1,1 C 47 % 39 % 1026,4 hPa 0,0 l/m 0,2 km/h (0 Bft) N 0,00 h 8,6 C 21,5 C 0,4 km/h (0 Bft)
26.05.2023 19:00 19,6 C 16,4 C 18,7 C 20,8 C 20,8 C 1,2 C 46 % 37 % 1026,4 hPa 0,0 l/m 0,2 km/h (0 Bft) N 0,00 h 7,7 C 20,8 C 0,6 km/h (0 Bft)
26.05.2023 20:00 17,8 C 16,5 C 16,7 C 18,4 C 18,3 C 0,7 C 48 % 37 % 1026,6 hPa 0,0 l/m 0,1 km/h (0 Bft) N 0,43 h 6,6 C 18,3 C 0,0 km/h (0 Bft)
26.05.2023 21:00 15,3 C 16,5 C 13,2 C 14,8 C 13,7 C 0,0 C 52 % 42 % 1027,0 hPa 0,0 l/m 0,0 km/h (0 Bft) N 0,00 h 5,5 C 13,7 C 0,0 km/h (0 Bft)
26.05.2023 22:00 12,6 C 16,5 C 10,5 C 12,1 C 11,1 C 0,0 C 60 % 50 % 1028,0 hPa 0,0 l/m 0,0 km/h (0 Bft) N 0,00 h 5,0 C 11,1 C 0,0 km/h (0 Bft)
26.05.2023 23:00 10,5 C 16,4 C 8,8 C 9,8 C 8,5 C 0,0 C 67 % 56 % 1028,3 hPa 0,0 l/m 0,0 km/h (0 Bft) N 0,00 h 4,5 C 8,5 C 0,0 km/h (0 Bft)
27.05.2023 00:00 8,8 C 16,3 C 7,5 C 8,2 C 7,0 C 0,0 C 73 % 62 % 1028,5 hPa 0,0 l/m 0,0 km/h (0 Bft) N 0,00 h 4,2 C 7,0 C 0,0 km/h (0 Bft)
27.05.2023 01:00 7,5 C 16,4 C 6,3 C 6,9 C 5,8 C 0,0 C 78 % 68 % 1028,7 hPa 0,0 l/m 0,0 km/h (0 Bft) N 0,00 h 3,9 C 5,8 C 0,0 km/h (0 Bft)
27.05.2023 02:00 6,4 C 16,2 C 5,5 C 5,9 C 4,8 C 0,0 C 80 % 69 % 1028,7 hPa 0,0 l/m 0,0 km/h (0 Bft) N 0,00 h 3,2 C 4,8 C 0,0 km/h (0 Bft)
27.05.2023 03:00 5,6 C 16,0 C 4,9 C 5,1 C 4,1 C 0,0 C 82 % 70 % 1028,7 hPa 0,0 l/m 0,0 km/h (0 Bft) N 0,00 h 2,7 C 4,1 C 0,0 km/h (0 Bft)
27.05.2023 04:00 4,8 C 15,9 C 4,1 C 4,3 C 3,2 C 0,0 C 83 % 70 % 1028,7 hPa 0,0 l/m 0,0 km/h (0 Bft) N 0,00 h 2,1 C 3,2 C 0,0 km/h (0 Bft)
27.05.2023 05:00 4,3 C 15,7 C 3,6 C 3,8 C 2,7 C 0,0 C 84 % 72 % 1028,5 hPa 0,0 l/m 0,0 km/h (0 Bft) N 0,00 h 1,8 C 2,7 C 0,0 km/h (0 Bft)
27.05.2023 06:00 4,5 C 15,5 C 4,1 C 4,4 C 4,1 C 0,1 C 86 % 74 % 1028,8 hPa 0,0 l/m 0,0 km/h (0 Bft) N 0,00 h 2,3 C 4,1 C 0,0 km/h (0 Bft)
27.05.2023 07:00 6,9 C 15,1 C 6,9 C 15,3 C 15,3 C 8,4 C 88 % 74 % 1029,1 hPa 0,0 l/m 0,0 km/h (0 Bft) N 0,83 h 5,0 C 15,3 C 0,0 km/h (0 Bft)
27.05.2023 08:00 11,4 C 14,9 C 9,6 C 23,6 C 23,6 C 12,3 C 82 % 70 % 1029,3 hPa 0,0 l/m 0,0 km/h (0 Bft) N 1,00 h 8,4 C 23,6 C 0,0 km/h (0 Bft)
27.05.2023 09:00 13,6 C 14,8 C 12,6 C 18,9 C 18,9 C 5,3 C 69 % 56 % 1029,4 hPa 0,0 l/m 1,1 km/h (1 Bft) O-NO 0,83 h 8,0 C 18,9 C 2,8 km/h (1 Bft)
27.05.2023 10:00 14,1 C 14,9 C 13,7 C 18,1 C 18,1 C 4,1 C 63 % 47 % 1029,1 hPa 0,0 l/m 1,7 km/h (1 Bft) O-NO 0,58 h 7,0 C 18,1 C 3,8 km/h (1 Bft)
27.05.2023 11:00 15,0 C 15,0 C 14,6 C 18,9 C 18,9 C 3,9 C 61 % 47 % 1028,6 hPa 0,0 l/m 1,3 km/h (1 Bft) O-NO 0,67 h 7,6 C 18,9 C 1,6 km/h (1 Bft)
27.05.2023 12:00 16,4 C 15,1 C 15,8 C 21,8 C 21,8 C 5,4 C 58 % 45 % 1027,9 hPa 0,0 l/m 1,4 km/h (1 Bft) NO 1,05 h 8,0 C 21,8 C 3,5 km/h (1 Bft)
27.05.2023 13:00 17,7 C 15,3 C 16,7 C 22,9 C 22,9 C 5,2 C 54 % 43 % 1027,8 hPa 0,0 l/m 1,2 km/h (1 Bft) N-NO 0,95 h 8,3 C 22,9 C 2,5 km/h (1 Bft)
27.05.2023 14:00 18,2 C 15,4 C 19,0 C 23,5 C 23,5 C 5,3 C 52 % 40 % 1027,1 hPa 0,0 l/m 1,9 km/h (1 Bft) O-NO 1,00 h 8,1 C 23,5 C 4,7 km/h (1 Bft)
27.05.2023 15:00 18,5 C 15,6 C 19,4 C 24,5 C 24,5 C 6,0 C 51 % 39 % 1026,5 hPa 0,0 l/m 1,5 km/h (1 Bft) NO 1,00 h 8,0 C 24,5 C 3,1 km/h (1 Bft)
27.05.2023 16:00 19,0 C 15,8 C 20,0 C 25,3 C 25,3 C 6,3 C 49 % 38 % 1025,7 hPa 0,0 l/m 1,0 km/h (0 Bft) O-NO 1,00 h 8,0 C 25,3 C 2,0 km/h (1 Bft)
27.05.2023 17:00 19,2 C 15,9 C 20,0 C 21,8 C 21,8 C 2,6 C 47 % 36 % 1025,1 hPa 0,0 l/m 1,7 km/h (1 Bft) O-NO 0,25 h 7,6 C 21,8 C 2,7 km/h (1 Bft)
27.05.2023 18:00 19,2 C 16,1 C 19,2 C 20,3 C 20,3 C 1,1 C 46 % 36 % 1024,5 hPa 0,0 l/m 1,2 km/h (1 Bft) NO 0,00 h 7,4 C 20,3 C 2,2 km/h (1 Bft)
27.05.2023 19:00 18,8 C 16,2 C 18,5 C 19,5 C 19,5 C 0,7 C 45 % 35 % 1024,1 hPa 0,0 l/m 1,0 km/h (0 Bft) NO 0,00 h 6,7 C 19,5 C 1,2 km/h (1 Bft)
27.05.2023 20:00 17,6 C 16,3 C 16,3 C 18,3 C 18,2 C 0,8 C 50 % 39 % 1023,9 hPa 0,0 l/m 0,0 km/h (0 Bft) N 0,35 h 7,0 C 18,2 C 0,0 km/h (0 Bft)
27.05.2023 21:00 15,1 C 16,4 C 12,8 C 14,5 C 13,3 C 0,0 C 58 % 48 % 1023,9 hPa 0,0 l/m 0,0 km/h (0 Bft) N 0,00 h 6,8 C 13,3 C 0,0 km/h (0 Bft)
27.05.2023 22:00 12,3 C 16,4 C 10,5 C 11,5 C 10,0 C 0,0 C 66 % 57 % 1023,8 hPa 0,0 l/m 0,0 km/h (0 Bft) N 0,00 h 6,1 C 10,0 C 0,0 km/h (0 Bft)
27.05.2023 23:00 10,4 C 16,4 C 9,0 C 9,6 C 8,2 C 0,0 C 73 % 64 % 1023,9 hPa 0,0 l/m 0,0 km/h (0 Bft) N 0,00 h 5,8 C 8,2 C 0,0 km/h (0 Bft)
28.05.2023 00:00 8,7 C 16,5 C 7,6 C 8,1 C 6,9 C 0,0 C 78 % 68 % 1023,4 hPa 0,0 l/m 0,0 km/h (0 Bft) N 0,00 h 5,0 C 6,9 C 0,0 km/h (0 Bft)
28.05.2023 01:00 7,6 C 16,4 C 6,6 C 7,0 C 6,0 C 0,0 C 81 % 70 % 1023,2 hPa 0,0 l/m 0,0 km/h (0 Bft) N 0,00 h 4,4 C 6,0 C 0,0 km/h (0 Bft)
28.05.2023 02:00 6,7 C 16,3 C 5,9 C 6,2 C 5,2 C 0,0 C 82 % 70 % 1023,0 hPa 0,0 l/m 0,0 km/h (0 Bft) N 0,00 h 3,8 C 5,2 C 0,0 km/h (0 Bft)
28.05.2023 03:00 5,8 C 16,0 C 5,2 C 5,4 C 4,5 C 0,0 C 84 % 72 % 1022,7 hPa 0,0 l/m 0,0 km/h (0 Bft) N 0,00 h 3,3 C 4,5 C 0,0 km/h (0 Bft)
28.05.2023 04:00 5,2 C 15,9 C 4,4 C 4,7 C 3,7 C 0,0 C 84 % 72 % 1022,5 hPa 0,0 l/m 0,0 km/h (0 Bft) N 0,00 h 2,7 C 3,7 C 0,0 km/h (0 Bft)
28.05.2023 05:00 4,6 C 15,7 C 4,1 C 4,2 C 3,4 C 0,0 C 85 % 72 % 1022,3 hPa 0,0 l/m 0,0 km/h (0 Bft) N 0,00 h 2,3 C 3,4 C 0,0 km/h (0 Bft)
28.05.2023 06:00 4,9 C 15,6 C 4,6 C 4,9 C 4,6 C 0,0 C 86 % 74 % 1022,5 hPa 0,0 l/m 0,0 km/h (0 Bft) N 0,00 h 2,9 C 4,6 C 0,0 km/h (0 Bft)
28.05.2023 07:00 7,2 C 15,2 C 7,5 C 15,5 C 15,5 C 8,3 C 88 % 74 % 1022,5 hPa 0,0 l/m 0,0 km/h (0 Bft) N 0,83 h 5,3 C 15,5 C 0,0 km/h (0 Bft)
28.05.2023 08:00 12,3 C 15,0 C 10,7 C 23,4 C 23,4 C 11,1 C 82 % 69 % 1022,3 hPa 0,0 l/m 0,0 km/h (0 Bft) N 1,00 h 9,3 C 23,4 C 0,0 km/h (0 Bft)
28.05.2023 09:00 15,7 C 15,0 C 13,6 C 23,5 C 23,5 C 7,8 C 68 % 61 % 1022,2 hPa 0,0 l/m 0,0 km/h (0 Bft) N 1,00 h 9,9 C 23,5 C 0,0 km/h (0 Bft)
28.05.2023 10:00 17,0 C 15,0 C 16,0 C 23,2 C 23,2 C 6,2 C 60 % 49 % 1022,1 hPa 0,0 l/m 0,1 km/h (0 Bft) N 1,00 h 9,1 C 23,2 C 0,6 km/h (0 Bft)
28.05.2023 11:00 18,4 C 15,1 C 17,7 C 22,2 C 22,2 C 3,8 C 54 % 44 % 1021,8 hPa 0,0 l/m 0,7 km/h (0 Bft) NO 0,58 h 9,0 C 22,2 C 3,4 km/h (1 Bft)
28.05.2023 12:00 19,6 C 15,3 C 18,7 C 24,5 C 24,5 C 5,0 C 50 % 41 % 1021,6 hPa 0,0 l/m 2,3 km/h (1 Bft) O-NO 1,00 h 8,7 C 24,5 C 4,2 km/h (1 Bft)
28.05.2023 13:00 21,1 C 15,5 C 19,7 C 26,4 C 26,4 C 5,3 C 45 % 38 % 1021,3 hPa 0,0 l/m 1,0 km/h (0 Bft) N 1,00 h 8,8 C 26,4 C 1,2 km/h (1 Bft)
28.05.2023 14:00 21,3 C 15,7 C 21,8 C 26,7 C 26,7 C 5,4 C 43 % 36 % 1020,9 hPa 0,0 l/m 2,3 km/h (1 Bft) N-NO 1,00 h 8,2 C 26,7 C 3,7 km/h (1 Bft)
28.05.2023 15:00 21,4 C 16,0 C 22,0 C 27,4 C 27,4 C 6,0 C 42 % 34 % 1020,8 hPa 0,0 l/m 1,8 km/h (1 Bft) NO 1,00 h 8,0 C 27,4 C 1,9 km/h (1 Bft)
28.05.2023 16:00 21,8 C 16,2 C 22,7 C 28,6 C 28,6 C 6,8 C 40 % 33 % 1020,4 hPa 0,0 l/m 0,5 km/h (0 Bft) N 1,00 h 7,5 C 28,6 C 0,8 km/h (0 Bft)
28.05.2023 17:00 22,1 C 16,3 C 22,8 C 25,0 C 25,0 C 2,9 C 39 % 32 % 1020,0 hPa 0,0 l/m 0,4 km/h (0 Bft) N 0,25 h 7,4 C 25,0 C 0,9 km/h (0 Bft)
28.05.2023 18:00 22,1 C 16,5 C 21,6 C 23,2 C 23,2 C 1,1 C 39 % 32 % 1020,1 hPa 0,0 l/m 0,1 km/h (0 Bft) N 0,00 h 7,3 C 23,2 C 0,1 km/h (0 Bft)
28.05.2023 19:00 21,6 C 16,6 C 20,6 C 22,5 C 22,5 C 1,0 C 39 % 32 % 1019,9 hPa 0,0 l/m 0,0 km/h (0 Bft) N 0,00 h 7,2 C 22,5 C 0,0 km/h (0 Bft)
28.05.2023 20:00 20,1 C 16,8 C 17,7 C 21,5 C 21,5 C 1,5 C 45 % 39 % 1020,2 hPa 0,0 l/m 0,0 km/h (0 Bft) N 0,83 h 7,6 C 21,5 C 0,0 km/h (0 Bft)
28.05.2023 21:00 16,8 C 16,8 C 14,2 C 16,1 C 14,8 C 0,0 C 54 % 48 % 1020,4 hPa 0,0 l/m 0,0 km/h (0 Bft) N 0,00 h 7,5 C 14,8 C 0,0 km/h (0 Bft)
28.05.2023 22:00 13,7 C 16,9 C 11,8 C 12,9 C 11,3 C 0,0 C 64 % 56 % 1020,9 hPa 0,0 l/m 0,0 km/h (0 Bft) N 0,00 h 7,1 C 11,3 C 0,0 km/h (0 Bft)
28.05.2023 23:00 11,5 C 16,9 C 10,1 C 10,7 C 9,2 C 0,0 C 71 % 64 % 1020,8 hPa 0,0 l/m 0,0 km/h (0 Bft) N 0,00 h 6,4 C 9,2 C 0,0 km/h (0 Bft)
Min-Datum _ 25.05.23 25.05.23 25.05.23 25.05.23 25.05.23 22.05.23 28.05.23 28.05.23 23.05.23 - 22.05.23 - - 25.05.23 25.05.23 22.05.23
_ Min-Zeit 05:30 08:26 05:35 05:30 04:55 00:00 18:55 17:05 04:26 - 00:00 - - 05:30 04:55 00:00
Minimum _ 3,3 C 14,3 C 2,6 C 2,8 C 1,9 C 0,0 C 37 % 30 % 1010,9 hPa - 0,0 km/h (0 Bft) - - 1,3 C 1,9 C 0,0 km/h (0 Bft)
Max-Datum _ 22.05.23 23.05.23 22.05.23 22.05.23 22.05.23 25.05.23 23.05.23 23.05.23 27.05.23 23.05.23 22.05.23 - 22.05.23 22.05.23 22.05.23 22.05.23
_ Max-Zeit 15:55 00:05 14:35 15:30 15:30 08:00 21:05 01:25 08:45 00:05 14:45 - 09:16 10:55 15:30 13:25
Maximum _ 26,1 C 19,5 C 27,1 C 30,5 C 30,5 C 13,8 C 89 % 90 % 1029,6 hPa 2,1 l/m 8,0 km/h
O-NO (2 Bft)
- 1,00 h 16,5 C 30,5 C 16,9 km/h
O-NO (3 Bft)
Durchschnitt _ 14,1 C 16,4 C 13,6 C 16,3 C 16,0 C 2,3 C 70 % 61 % 1021,5 hPa #2,1 l/m 0,5 km/h (0 Bft) O-NO #57:15 h 8,2 C 16,0 C 0,8 km/h (0 Bft)
2023 www.wetterstation-wechselburg.de